Time;durP1;ratioP1;P1;durP2;ratioP2;P2;SDS_P1;SDS_P2;PMS_P1;PMS_P2;Temp;Humidity;BMP_temperature;BMP_pressure;BME280_temperature;BME280_humidity;BME280_pressure;Samples;Min_cycle;Max_cycle;Signal;HPM_P1;HPM_P2
2023/11/02 00:02:23;;;;;;;7.27;2.20;;;10.20;76.10;;;;;;4975834;28;20425;-70
2023/11/02 00:04:50;;;;;;;6.47;2.20;;;10.10;76.10;;;;;;4976270;28;20954;-70
2023/11/02 00:07:16;;;;;;;8.97;2.00;;;10.10;76.20;;;;;;4977479;28;20433;-69
2023/11/02 00:09:41;;;;;;;4.07;1.70;;;10.10;76.20;;;;;;4975239;28;20474;-70
2023/11/02 00:12:11;;;;;;;3.07;1.70;;;10.10;76.20;;;;;;4975160;28;20430;-70
2023/11/02 00:14:44;;;;;;;2.03;1.60;;;10.10;76.10;;;;;;4983268;28;20318;-68
2023/11/02 00:17:35;;;;;;;1.90;1.30;;;10.10;76.40;;;;;;4987803;28;20470;-70
2023/11/02 00:20:11;;;;;;;2.13;1.70;;;10.20;76.20;;;;;;4980902;28;20461;-70
2023/11/02 00:22:44;;;;;;;2.60;1.40;;;10.20;75.90;;;;;;4978298;28;20430;-69
2023/11/02 00:25:20;;;;;;;1.93;1.20;;;10.20;75.70;;;;;;4979261;28;20458;-68
2023/11/02 00:27:45;;;;;;;1.97;1.27;;;10.20;75.50;;;;;;4975600;28;20430;-69
2023/11/02 00:30:11;;;;;;;2.40;1.37;;;10.20;75.70;;;;;;4975545;28;21008;-68
2023/11/02 00:32:37;;;;;;;1.90;1.47;;;10.20;75.70;;;;;;4974232;28;20198;-69
2023/11/02 00:35:02;;;;;;;2.67;1.60;;;10.20;75.50;;;;;;4974997;28;20636;-70
2023/11/02 00:37:28;;;;;;;3.20;1.83;;;10.20;75.50;;;;;;4975358;28;20218;-70
2023/11/02 00:39:54;;;;;;;2.73;1.87;;;10.20;75.40;;;;;;4974258;28;20197;-71
2023/11/02 00:42:23;;;;;;;2.40;1.60;;;10.20;75.20;;;;;;4955109;28;20435;-70
2023/11/02 00:44:48;;;;;;;1.43;1.10;;;10.30;75.20;;;;;;4955219;28;20243;-70
2023/11/02 00:47:18;;;;;;;3.20;1.60;;;10.30;74.90;;;;;;4955893;28;20462;-69
2023/11/02 00:49:43;;;;;;;3.07;1.50;;;10.30;74.80;;;;;;4963259;28;20226;-70
2023/11/02 00:52:09;;;;;;;2.30;1.80;;;10.30;74.60;;;;;;4974381;28;20430;-69
2023/11/02 00:54:43;;;;;;;2.13;1.33;;;10.20;74.50;;;;;;4972935;28;20222;-70
2023/11/02 00:57:11;;;;;;;3.10;1.70;;;10.20;74.50;;;;;;4974697;28;20193;-70
2023/11/02 00:59:38;;;;;;;2.53;1.80;;;10.20;74.50;;;;;;4974424;28;20426;-69
2023/11/02 01:02:05;;;;;;;2.33;1.50;;;10.20;74.30;;;;;;4972836;28;20529;-69
2023/11/02 01:04:37;;;;;;;3.83;1.30;;;10.20;74.30;;;;;;4974183;28;20457;-69
2023/11/02 01:07:02;;;;;;;2.00;1.30;;;10.20;74.20;;;;;;4974714;28;20435;-68
2023/11/02 01:09:54;;;;;;;2.10;1.20;;;10.30;73.30;;;;;;4973687;28;21048;-71
2023/11/02 01:12:27;;;;;;;2.07;1.40;;;10.30;73.30;;;;;;4974288;28;20191;-69
2023/11/02 01:14:53;;;;;;;2.47;1.77;;;10.30;73.20;;;;;;4974739;28;20438;-70
2023/11/02 01:17:40;;;;;;;2.10;1.40;;;10.40;72.90;;;;;;4974790;28;20977;-70
2023/11/02 01:20:14;;;;;;;1.23;1.10;;;10.50;72.40;;;;;;4974757;28;20750;-70
2023/11/02 01:23:04;;;;;;;3.33;1.50;;;10.50;72.30;;;;;;4975680;28;20434;-69
2023/11/02 01:25:30;;;;;;;2.93;1.07;;;10.50;72.10;;;;;;4976784;28;20977;-70
2023/11/02 01:28:02;;;;;;;2.40;1.43;;;10.50;72.00;;;;;;4977069;28;20461;-69
2023/11/02 01:30:36;;;;;;;1.63;1.20;;;10.40;72.30;;;;;;4975641;28;20481;-69
2023/11/02 01:33:34;;;;;;;3.60;1.60;;;10.40;72.30;;;;;;4973482;28;20426;-69
2023/11/02 01:36:00;;;;;;;4.53;1.80;;;10.40;72.40;;;;;;4962978;28;20427;-69
2023/11/02 01:38:31;;;;;;;3.23;1.53;;;10.30;72.60;;;;;;4972847;28;20430;-69
2023/11/02 01:41:15;;;;;;;7.43;1.57;;;10.30;72.70;;;;;;4974519;28;20495;-69
2023/11/02 01:43:52;;;;;;;1.87;1.40;;;10.30;72.60;;;;;;4973118;28;20509;-69
2023/11/02 01:47:02;;;;;;;3.00;1.53;;;10.40;72.40;;;;;;4989123;28;20431;-71
2023/11/02 01:49:55;;;;;;;2.20;1.60;;;10.40;72.40;;;;;;4974191;28;20553;-69
2023/11/02 01:52:45;;;;;;;3.67;1.30;;;10.40;72.40;;;;;;4973923;28;20542;-70
2023/11/02 01:55:31;;;;;;;1.80;1.53;;;10.40;72.40;;;;;;4974258;28;20509;-69
2023/11/02 01:58:05;;;;;;;2.23;1.50;;;10.40;72.30;;;;;;4974023;28;20517;-69
2023/11/02 02:01:16;;;;;;;3.20;1.40;;;10.40;72.30;;;;;;4974715;28;20419;-71
2023/11/02 02:03:50;;;;;;;5.80;2.27;;;10.40;72.40;;;;;;4972997;28;20449;-69
2023/11/02 02:06:45;;;;;;;2.30;1.80;;;10.50;72.60;;;;;;4978674;28;20426;-71
2023/11/02 02:09:37;;;;;;;3.80;1.70;;;10.50;72.60;;;;;;4979578;28;20488;-70
2023/11/02 02:12:32;;;;;;;2.80;1.23;;;10.50;72.60;;;;;;4976138;28;20419;-70
2023/11/02 02:15:22;;;;;;;3.00;1.80;;;10.50;72.60;;;;;;4975963;28;20435;-69
2023/11/02 02:17:54;;;;;;;3.20;1.50;;;10.50;72.60;;;;;;4974856;28;20407;-70
2023/11/02 02:20:25;;;;;;;3.10;1.77;;;10.50;72.60;;;;;;4973077;28;20866;-68
2023/11/02 02:22:55;;;;;;;3.10;1.60;;;10.60;72.60;;;;;;4972267;28;20438;-71
2023/11/02 02:25:53;;;;;;;2.37;1.40;;;10.60;72.70;;;;;;4971580;28;20422;-70
2023/11/02 02:28:43;;;;;;;3.80;1.93;;;10.50;72.90;;;;;;4972206;28;20426;-69
2023/11/02 02:31:30;;;;;;;2.50;1.60;;;10.50;73.20;;;;;;4972762;28;20423;-70
2023/11/02 02:34:17;;;;;;;3.50;1.90;;;10.40;73.30;;;;;;4972439;28;20439;-69
2023/11/02 02:37:08;;;;;;;3.83;2.07;;;10.50;73.50;;;;;;4972901;28;20430;-69
2023/11/02 02:39:38;;;;;;;3.10;1.50;;;10.40;73.60;;;;;;4972974;28;20757;-70
2023/11/02 02:42:07;;;;;;;2.90;1.60;;;10.40;73.90;;;;;;4972743;28;20441;-70
2023/11/02 02:44:35;;;;;;;4.50;1.87;;;10.50;73.90;;;;;;4972753;28;20875;-70
2023/11/02 02:47:02;;;;;;;4.50;2.00;;;10.50;73.90;;;;;;4972762;28;20438;-70
2023/11/02 02:49:39;;;;;;;3.23;1.80;;;10.50;73.90;;;;;;4972739;28;20468;-69
2023/11/02 02:52:09;;;;;;;3.70;2.27;;;10.50;73.90;;;;;;4972039;28;20454;-70
2023/11/02 02:54:38;;;;;;;1.90;1.60;;;10.50;74.00;;;;;;4972015;28;20528;-70
2023/11/02 02:57:07;;;;;;;2.90;1.90;;;10.50;74.00;;;;;;4972836;28;20596;-70
2023/11/02 02:59:40;;;;;;;3.50;1.80;;;10.50;74.00;;;;;;4972940;28;20930;-67
2023/11/02 03:02:08;;;;;;;6.53;2.10;;;10.50;74.30;;;;;;4972686;28;20418;-70
2023/11/02 03:04:35;;;;;;;5.43;1.70;;;10.50;74.30;;;;;;4955896;28;20455;-70
2023/11/02 03:07:02;;;;;;;2.20;1.63;;;10.50;74.20;;;;;;4953529;28;20428;-69
2023/11/02 03:09:31;;;;;;;3.43;2.10;;;10.50;74.20;;;;;;4953270;28;20471;-69
2023/11/02 03:12:03;;;;;;;4.30;1.73;;;10.50;74.30;;;;;;4953035;28;20431;-69
2023/11/02 03:14:30;;;;;;;3.47;1.90;;;10.60;74.30;;;;;;4952624;28;20905;-71
2023/11/02 03:17:23;;;;;;;2.97;2.30;;;10.60;74.20;;;;;;4968165;28;20442;-69
2023/11/02 03:19:50;;;;;;;3.40;2.30;;;10.60;74.00;;;;;;4958628;28;20893;-70
2023/11/02 03:22:20;;;;;;;2.10;1.60;;;10.60;74.20;;;;;;4953587;28;20955;-70
2023/11/02 03:25:00;;;;;;;2.50;1.80;;;10.60;74.20;;;;;;4954849;28;20451;-70
2023/11/02 03:28:07;;;;;;;3.40;1.90;;;10.50;74.30;;;;;;4954460;28;20866;-71
2023/11/02 03:30:42;;;;;;;3.53;1.53;;;10.60;74.60;;;;;;4966651;28;20490;-69
2023/11/02 03:33:26;;;;;;;3.83;1.73;;;10.70;74.60;;;;;;4962406;28;20457;-69
2023/11/02 03:36:03;;;;;;;2.40;1.73;;;10.60;74.60;;;;;;4970574;28;20485;-70
2023/11/02 03:38:38;;;;;;;2.73;1.93;;;10.70;75.10;;;;;;4970814;28;20419;-71
2023/11/02 03:41:10;;;;;;;5.00;2.00;;;10.80;75.20;;;;;;4957421;28;20423;-70
2023/11/02 03:43:47;;;;;;;4.37;1.60;;;10.80;74.90;;;;;;4956094;28;20509;-70
2023/11/02 03:46:41;;;;;;;2.50;1.63;;;10.70;75.40;;;;;;4956893;28;20430;-68
2023/11/02 03:49:29;;;;;;;2.37;1.77;;;10.70;75.40;;;;;;4956800;28;20471;-70
2023/11/02 03:52:15;;;;;;;2.43;1.57;;;10.60;75.90;;;;;;4966885;28;20438;-70
2023/11/02 03:54:53;;;;;;;3.20;1.90;;;10.60;76.10;;;;;;4975463;28;20445;-70
2023/11/02 03:57:28;;;;;;;1.83;1.60;;;10.70;76.50;;;;;;4976050;28;20414;-70
2023/11/02 04:00:08;;;;;;;2.70;1.63;;;10.70;76.80;;;;;;4976410;28;20790;-70
2023/11/02 04:02:37;;;;;;;3.60;2.20;;;10.80;77.30;;;;;;4975405;28;20808;-71
2023/11/02 04:05:12;;;;;;;3.03;1.97;;;10.80;77.40;;;;;;4976187;28;20791;-69
2023/11/02 04:07:45;;;;;;;3.43;1.87;;;10.70;78.00;;;;;;4970310;28;20419;-70
2023/11/02 04:10:12;;;;;;;2.10;1.90;;;10.60;78.30;;;;;;4957850;28;20487;-69
2023/11/02 04:13:02;;;;;;;2.67;1.87;;;10.60;78.90;;;;;;4957678;28;20435;-69
2023/11/02 04:15:28;;;;;;;3.43;2.13;;;10.60;79.20;;;;;;4959957;28;20424;-70
2023/11/02 04:17:53;;;;;;;3.93;1.90;;;10.50;79.50;;;;;;4957165;28;20442;-69
2023/11/02 04:20:19;;;;;;;4.10;2.30;;;10.50;79.70;;;;;;4956852;28;20207;-69
2023/11/02 04:22:45;;;;;;;2.93;2.00;;;10.50;79.50;;;;;;4956679;28;20191;-70
2023/11/02 04:25:11;;;;;;;6.30;2.90;;;10.50;79.60;;;;;;4958045;28;20235;-70
2023/11/02 04:27:37;;;;;;;2.80;1.83;;;10.50;79.50;;;;;;4959569;28;20192;-69
2023/11/02 04:30:03;;;;;;;3.20;1.73;;;10.50;79.30;;;;;;4958714;28;20840;-68
2023/11/02 04:32:28;;;;;;;2.83;1.63;;;10.60;78.90;;;;;;4956326;28;20415;-71
2023/11/02 04:34:56;;;;;;;2.70;1.73;;;10.60;78.70;;;;;;4973224;28;20838;-71
2023/11/02 04:37:21;;;;;;;2.90;1.73;;;10.70;78.30;;;;;;4975300;28;20199;-70
2023/11/02 04:39:48;;;;;;;5.87;1.70;;;10.70;78.30;;;;;;4975067;28;20453;-70
2023/11/02 04:42:18;;;;;;;3.30;1.77;;;10.70;78.30;;;;;;4964863;28;20271;-68
2023/11/02 04:44:44;;;;;;;3.37;1.60;;;10.80;78.40;;;;;;4954215;28;20444;-69
2023/11/02 04:47:10;;;;;;;3.63;1.50;;;10.70;78.10;;;;;;4955644;28;20438;-69
2023/11/02 04:49:36;;;;;;;2.57;1.70;;;10.80;78.00;;;;;;4955514;28;20889;-71
2023/11/02 04:52:02;;;;;;;1.83;1.50;;;10.80;78.30;;;;;;4955862;28;20439;-69
2023/11/02 04:54:29;;;;;;;4.23;1.80;;;10.80;77.80;;;;;;4954616;28;20208;-69
2023/11/02 04:56:55;;;;;;;4.40;1.70;;;10.80;78.00;;;;;;4955272;28;20515;-70
2023/11/02 04:59:21;;;;;;;3.30;1.90;;;10.70;77.70;;;;;;4955438;28;20746;-69
2023/11/02 05:01:48;;;;;;;3.27;1.70;;;10.70;77.80;;;;;;4955256;28;20270;-70
2023/11/02 05:04:14;;;;;;;2.73;1.43;;;10.70;78.30;;;;;;4957987;28;20451;-70
2023/11/02 05:06:40;;;;;;;1.80;1.60;;;10.70;78.00;;;;;;4964138;28;20785;-68
2023/11/02 05:09:05;;;;;;;1.63;1.07;;;10.70;78.00;;;;;;4971909;28;20532;-70
2023/11/02 05:11:31;;;;;;;3.50;1.47;;;10.70;78.00;;;;;;4965241;28;20199;-71
2023/11/02 05:13:57;;;;;;;3.17;1.80;;;10.70;77.60;;;;;;4956220;28;20230;-69
2023/11/02 05:16:22;;;;;;;3.40;1.73;;;10.70;77.00;;;;;;4956871;28;20972;-70
2023/11/02 05:18:48;;;;;;;3.67;1.50;;;10.70;76.50;;;;;;4957601;28;20192;-70
2023/11/02 05:21:13;;;;;;;1.73;1.50;;;10.70;76.40;;;;;;4957934;28;20661;-71
2023/11/02 05:23:39;;;;;;;3.67;1.63;;;10.70;76.70;;;;;;4956136;28;20215;-72
2023/11/02 05:26:05;;;;;;;4.70;1.50;;;10.70;76.50;;;;;;4956643;28;20200;-70
2023/11/02 05:28:31;;;;;;;4.40;1.83;;;10.70;76.50;;;;;;4957308;28;21032;-71
2023/11/02 05:30:57;;;;;;;3.47;1.70;;;10.80;76.50;;;;;;4957392;28;20471;-69
2023/11/02 05:33:23;;;;;;;2.60;1.60;;;10.80;76.50;;;;;;4956118;28;20219;-69
2023/11/02 05:35:52;;;;;;;3.40;1.63;;;10.80;76.40;;;;;;4976087;28;20422;-70
2023/11/02 05:38:21;;;;;;;2.23;1.47;;;10.90;74.80;;;;;;4976573;28;20570;-71
2023/11/02 05:40:47;;;;;;;3.70;1.57;;;11.00;74.30;;;;;;4975850;28;20505;-69
2023/11/02 05:43:12;;;;;;;2.07;1.53;;;11.10;74.00;;;;;;4961150;28;20538;-69
2023/11/02 05:45:38;;;;;;;2.63;1.50;;;11.20;73.90;;;;;;4955176;28;20195;-69
2023/11/02 05:48:04;;;;;;;3.50;1.37;;;11.20;73.60;;;;;;4955587;28;20202;-70
2023/11/02 05:50:30;;;;;;;4.13;1.83;;;11.20;73.50;;;;;;4954469;28;20271;-72
2023/11/02 05:52:55;;;;;;;2.37;1.63;;;11.30;73.20;;;;;;4956100;28;20427;-71
2023/11/02 05:55:21;;;;;;;3.67;2.23;;;11.40;73.20;;;;;;4955933;28;20195;-70
2023/11/02 05:57:47;;;;;;;4.80;2.70;;;11.30;72.90;;;;;;4955669;28;20195;-70
2023/11/02 06:00:14;;;;;;;4.37;1.87;;;11.30;72.90;;;;;;4956382;28;20467;-70
2023/11/02 06:02:40;;;;;;;4.50;1.77;;;11.30;73.20;;;;;;4956372;28;20530;-70
2023/11/02 06:05:06;;;;;;;2.97;1.20;;;11.40;72.70;;;;;;4955012;28;20595;-70
2023/11/02 06:07:33;;;;;;;2.53;1.47;;;11.30;72.10;;;;;;4954854;28;20427;-69
2023/11/02 06:09:59;;;;;;;2.37;1.37;;;11.40;71.80;;;;;;4954255;28;20550;-70
2023/11/02 06:12:25;;;;;;;1.93;1.23;;;11.40;72.00;;;;;;4953932;28;20944;-70
2023/11/02 06:14:51;;;;;;;2.60;1.70;;;11.40;72.10;;;;;;4954732;28;20288;-70
2023/11/02 06:17:17;;;;;;;2.60;2.10;;;11.30;74.60;;;;;;4955418;28;20431;-70
2023/11/02 06:19:43;;;;;;;2.27;1.63;;;11.00;77.00;;;;;;4955930;28;20514;-70
2023/11/02 06:22:08;;;;;;;3.60;2.10;;;10.60;79.30;;;;;;4957280;28;20551;-69
2023/11/02 06:24:34;;;;;;;2.27;1.60;;;10.40;80.20;;;;;;4954871;28;20208;-69
2023/11/02 06:26:59;;;;;;;2.97;1.70;;;10.40;80.60;;;;;;4955207;28;20282;-70
2023/11/02 06:29:25;;;;;;;2.87;1.70;;;10.30;81.20;;;;;;4954848;28;20239;-70
2023/11/02 06:31:50;;;;;;;2.17;1.73;;;10.30;82.10;;;;;;4954351;28;20295;-68
2023/11/02 06:34:17;;;;;;;8.00;2.60;;;10.20;82.80;;;;;;4958466;28;20207;-70
2023/11/02 06:36:43;;;;;;;3.20;1.83;;;10.20;83.00;;;;;;4960670;28;20195;-70
2023/11/02 06:39:10;;;;;;;2.47;2.00;;;10.20;83.30;;;;;;4954058;28;20435;-71
2023/11/02 06:41:36;;;;;;;3.33;1.90;;;10.10;83.60;;;;;;4962469;28;20458;-70
2023/11/02 06:44:02;;;;;;;3.03;1.90;;;10.10;83.80;;;;;;4959059;28;20454;-70
2023/11/02 06:46:28;;;;;;;4.90;2.70;;;10.10;84.10;;;;;;4976315;28;20427;-68
2023/11/02 06:48:53;;;;;;;4.53;2.57;;;10.00;84.30;;;;;;4974155;28;20538;-69
2023/11/02 06:51:20;;;;;;;3.40;2.33;;;10.00;85.20;;;;;;4974894;28;20571;-70
2023/11/02 06:53:45;;;;;;;3.90;2.33;;;10.00;85.60;;;;;;4972616;28;20214;-69
2023/11/02 06:56:12;;;;;;;3.60;2.20;;;10.00;86.20;;;;;;4973264;28;20423;-70
2023/11/02 06:58:38;;;;;;;3.43;1.70;;;10.00;86.50;;;;;;4972939;28;20234;-70
2023/11/02 07:01:05;;;;;;;3.57;2.23;;;10.10;86.80;;;;;;4973038;28;20427;-69
2023/11/02 07:03:30;;;;;;;2.77;1.67;;;10.10;86.80;;;;;;4972193;28;21235;-69
2023/11/02 07:05:56;;;;;;;3.00;2.00;;;10.10;86.60;;;;;;4972504;28;20458;-70
2023/11/02 07:08:22;;;;;;;4.10;1.90;;;10.10;86.80;;;;;;4973104;28;20597;-70
2023/11/02 07:10:48;;;;;;;4.70;2.07;;;10.10;86.60;;;;;;4972885;28;20277;-71
2023/11/02 07:13:15;;;;;;;4.50;2.10;;;10.20;86.50;;;;;;4972503;28;20458;-70
2023/11/02 07:15:41;;;;;;;3.77;1.90;;;10.10;86.80;;;;;;4973292;28;20205;-68
2023/11/02 07:18:07;;;;;;;3.93;2.10;;;10.20;86.80;;;;;;4973327;28;20454;-70
2023/11/02 07:20:33;;;;;;;2.40;1.70;;;10.30;86.80;;;;;;4987951;28;20450;-70
2023/11/02 07:22:59;;;;;;;3.87;2.10;;;10.30;86.80;;;;;;4972044;28;20430;-70
2023/11/02 07:25:25;;;;;;;5.13;2.30;;;10.30;86.50;;;;;;4972802;28;20275;-70
2023/11/02 07:27:51;;;;;;;2.60;1.90;;;10.30;86.50;;;;;;4973065;28;20195;-70
2023/11/02 07:30:17;;;;;;;5.47;2.20;;;10.30;86.60;;;;;;4973015;28;20478;-70
2023/11/02 07:32:43;;;;;;;3.40;2.00;;;10.30;86.50;;;;;;4971974;28;20430;-69
2023/11/02 07:35:09;;;;;;;6.47;2.83;;;10.30;86.30;;;;;;4973364;28;20275;-70
2023/11/02 07:37:35;;;;;;;3.07;1.63;;;10.30;86.50;;;;;;4972903;28;20187;-70
2023/11/02 07:40:01;;;;;;;4.27;2.50;;;10.40;86.50;;;;;;4972789;28;20421;-70
2023/11/02 07:42:27;;;;;;;5.37;2.20;;;10.40;86.20;;;;;;4965802;28;20478;-69
2023/11/02 07:44:52;;;;;;;3.73;2.30;;;10.40;85.90;;;;;;4953750;28;20507;-70
2023/11/02 07:47:18;;;;;;;3.50;2.20;;;10.40;85.50;;;;;;4954049;28;20423;-71
2023/11/02 07:49:44;;;;;;;5.03;2.43;;;10.40;85.30;;;;;;4954040;28;20688;-70
2023/11/02 07:52:10;;;;;;;4.70;2.57;;;10.40;85.30;;;;;;4952723;28;20455;-69
2023/11/02 07:54:38;;;;;;;5.10;2.57;;;10.50;85.20;;;;;;4952462;28;20212;-70
2023/11/02 07:57:07;;;;;;;4.50;2.30;;;10.50;84.70;;;;;;4953019;28;20194;-70
2023/11/02 07:59:36;;;;;;;4.33;2.43;;;10.50;84.60;;;;;;4952768;28;20516;-68
2023/11/02 08:02:03;;;;;;;2.53;2.00;;;10.50;84.70;;;;;;4952582;28;20440;-70
2023/11/02 08:04:29;;;;;;;4.30;2.10;;;10.50;84.90;;;;;;4952197;28;20470;-68
2023/11/02 08:06:55;;;;;;;5.70;2.50;;;10.60;84.60;;;;;;4953859;28;20924;-71
2023/11/02 08:09:20;;;;;;;4.90;2.17;;;10.70;84.30;;;;;;4953087;28;20282;-69
2023/11/02 08:11:46;;;;;;;3.13;1.90;;;10.60;84.10;;;;;;4953156;28;20552;-71
2023/11/02 08:14:12;;;;;;;3.83;2.30;;;10.60;84.10;;;;;;4952215;28;20564;-69
2023/11/02 08:16:37;;;;;;;2.77;1.97;;;10.60;84.10;;;;;;4952874;28;20199;-71
2023/11/02 08:19:03;;;;;;;10.03;2.23;;;10.60;83.80;;;;;;4955950;28;20207;-70
2023/11/02 08:21:29;;;;;;;4.10;2.70;;;10.70;83.70;;;;;;4956557;28;20200;-70
2023/11/02 08:23:54;;;;;;;3.40;2.37;;;10.70;83.70;;;;;;4955611;28;20215;-70
2023/11/02 08:26:21;;;;;;;4.03;1.80;;;10.60;84.00;;;;;;4956502;28;20427;-71
2023/11/02 08:28:52;;;;;;;2.87;1.77;;;10.60;84.30;;;;;;4956716;28;20279;-71
2023/11/02 08:31:23;;;;;;;2.00;1.43;;;10.60;84.10;;;;;;4956927;28;20430;-69
2023/11/02 08:33:48;;;;;;;3.13;1.80;;;10.60;83.80;;;;;;4958105;28;20442;-69
2023/11/02 08:36:14;;;;;;;5.13;2.00;;;10.60;84.00;;;;;;4966627;28;20808;-70
2023/11/02 08:38:40;;;;;;;2.90;1.53;;;10.60;84.10;;;;;;4956057;28;20208;-67
2023/11/02 08:41:05;;;;;;;3.57;2.00;;;10.60;84.10;;;;;;4965673;28;20197;-71
2023/11/02 08:43:32;;;;;;;3.80;2.00;;;10.60;84.40;;;;;;4959902;28;20244;-70
2023/11/02 08:45:58;;;;;;;2.00;1.40;;;10.60;84.60;;;;;;4957028;28;20251;-69
2023/11/02 08:48:24;;;;;;;2.10;1.73;;;10.60;84.60;;;;;;4957422;28;20530;-68
2023/11/02 08:50:49;;;;;;;5.63;2.63;;;10.60;84.70;;;;;;4958505;28;20223;-71
2023/11/02 08:53:15;;;;;;;4.10;2.60;;;10.60;84.70;;;;;;4958395;28;20215;-69
2023/11/02 08:55:40;;;;;;;10.20;2.30;;;10.60;84.90;;;;;;4959381;28;20208;-70
2023/11/02 08:58:06;;;;;;;4.10;2.20;;;10.60;85.00;;;;;;4972934;28;20202;-69
2023/11/02 09:00:33;;;;;;;4.47;2.67;;;10.50;85.00;;;;;;4957656;28;20265;-69
2023/11/02 09:02:59;;;;;;;6.17;2.67;;;10.50;85.20;;;;;;4957030;28;20220;-69
2023/11/02 09:05:24;;;;;;;3.13;1.73;;;10.60;85.30;;;;;;4957808;28;20436;-69
2023/11/02 09:07:50;;;;;;;3.90;2.40;;;10.60;85.30;;;;;;4957855;28;20199;-70
2023/11/02 09:10:16;;;;;;;4.97;3.00;;;10.60;85.30;;;;;;4958750;28;20283;-69
2023/11/02 09:12:42;;;;;;;4.07;2.50;;;10.50;85.50;;;;;;4957775;28;20278;-71
2023/11/02 09:15:08;;;;;;;2.93;2.20;;;10.60;85.60;;;;;;4956675;28;20259;-70
2023/11/02 09:17:34;;;;;;;6.07;2.20;;;10.70;85.30;;;;;;4957240;28;20435;-69
2023/11/02 09:20:00;;;;;;;7.20;3.10;;;10.70;85.00;;;;;;4957421;28;20443;-70
2023/11/02 09:22:26;;;;;;;4.10;2.30;;;10.60;84.90;;;;;;4955299;28;20279;-70
2023/11/02 09:24:51;;;;;;;5.03;2.33;;;10.60;85.20;;;;;;4955175;28;20592;-70
2023/11/02 09:27:17;;;;;;;4.30;2.63;;;10.60;85.50;;;;;;4955407;28;20435;-69
2023/11/02 09:29:45;;;;;;;3.53;2.30;;;10.60;85.70;;;;;;4954708;28;20659;-71
2023/11/02 09:32:11;;;;;;;16.03;3.43;;;10.60;85.60;;;;;;4954715;28;20663;-69
2023/11/02 09:34:38;;;;;;;9.30;2.73;;;10.70;85.60;;;;;;4964729;28;20545;-70
2023/11/02 09:37:04;;;;;;;6.43;2.93;;;10.70;85.70;;;;;;4976026;28;20425;-69
2023/11/02 09:39:31;;;;;;;7.67;3.73;;;10.70;86.00;;;;;;4974811;28;20794;-71
2023/11/02 09:41:57;;;;;;;5.23;3.73;;;10.70;86.60;;;;;;4971777;28;20459;-69
2023/11/02 09:44:23;;;;;;;7.00;3.67;;;10.70;87.00;;;;;;4969341;28;20498;-68
2023/11/02 09:46:50;;;;;;;11.90;3.30;;;10.60;87.40;;;;;;4954951;28;20280;-69
2023/11/02 09:49:16;;;;;;;4.03;2.97;;;10.60;87.70;;;;;;4955287;28;20471;-70
2023/11/02 09:51:42;;;;;;;8.37;2.53;;;10.60;87.80;;;;;;4961384;28;20457;-71
2023/11/02 09:54:08;;;;;;;6.57;2.70;;;10.60;87.80;;;;;;4973577;28;20207;-71
2023/11/02 09:56:35;;;;;;;8.20;3.10;;;10.60;87.80;;;;;;4973928;28;20418;-71
2023/11/02 09:59:03;;;;;;;3.27;2.20;;;10.60;87.70;;;;;;4974593;28;20907;-69
2023/11/02 10:01:29;;;;;;;4.10;1.83;;;10.70;87.80;;;;;;4957985;28;21062;-68
2023/11/02 10:03:54;;;;;;;5.13;2.27;;;10.80;87.30;;;;;;4954342;28;20442;-70
2023/11/02 10:06:21;;;;;;;4.50;1.40;;;10.90;86.90;;;;;;4955365;28;20420;-70
2023/11/02 10:08:46;;;;;;;2.03;1.40;;;11.00;86.50;;;;;;4955473;28;20196;-69
2023/11/02 10:11:14;;;;;;;2.17;1.60;;;11.00;86.20;;;;;;4955016;28;20447;-70
2023/11/02 10:13:44;;;;;;;3.13;1.80;;;11.10;86.30;;;;;;4953632;28;20576;-70
2023/11/02 10:16:09;;;;;;;3.23;1.77;;;11.10;85.90;;;;;;4954825;28;20432;-71
2023/11/02 10:18:35;;;;;;;2.90;1.90;;;11.10;85.90;;;;;;4954905;28;20423;-69
2023/11/02 10:21:05;;;;;;;2.37;1.30;;;11.20;86.00;;;;;;4954817;28;20211;-68
2023/11/02 10:23:51;;;;;;;1.70;1.43;;;11.20;86.30;;;;;;4953707;28;20451;-70
2023/11/02 10:26:17;;;;;;;1.93;1.20;;;11.20;85.90;;;;;;4954501;28;20759;-71
2023/11/02 10:28:43;;;;;;;2.40;1.23;;;11.30;85.90;;;;;;4954504;28;20420;-69
2023/11/02 10:31:09;;;;;;;2.00;1.10;;;11.30;85.70;;;;;;4954902;28;20999;-69
2023/11/02 10:33:36;;;;;;;2.20;1.10;;;11.30;85.60;;;;;;4955686;28;20215;-70
2023/11/02 10:36:05;;;;;;;1.43;1.00;;;11.40;85.60;;;;;;4975889;28;20422;-70
2023/11/02 10:38:31;;;;;;;1.00;0.80;;;11.40;85.50;;;;;;4975087;28;20430;-69
2023/11/02 10:40:57;;;;;;;2.27;1.40;;;11.40;85.60;;;;;;4973836;28;20442;-70
2023/11/02 10:43:24;;;;;;;2.23;1.23;;;11.40;85.50;;;;;;4960455;28;20459;-70
2023/11/02 10:45:52;;;;;;;1.30;0.90;;;11.40;85.50;;;;;;4956868;28;20431;-69
2023/11/02 10:48:19;;;;;;;1.50;1.03;;;11.40;85.30;;;;;;4955543;28;20420;-70
2023/11/02 10:50:46;;;;;;;1.43;1.00;;;11.40;85.50;;;;;;4955235;28;21053;-70
2023/11/02 10:53:21;;;;;;;1.27;1.10;;;11.50;85.50;;;;;;4952602;28;20451;-71
2023/11/02 10:55:50;;;;;;;1.43;0.93;;;11.50;85.20;;;;;;4954143;28;20482;-70
2023/11/02 10:58:18;;;;;;;3.27;1.00;;;11.50;85.20;;;;;;4953664;28;20439;-70
2023/11/02 11:00:46;;;;;;;2.57;1.40;;;11.50;85.50;;;;;;4953630;28;20482;-69
2023/11/02 11:03:12;;;;;;;1.90;0.97;;;11.50;84.70;;;;;;4952565;28;20451;-69
2023/11/02 11:05:39;;;;;;;1.53;0.77;;;11.50;84.90;;;;;;4953389;28;20498;-70
2023/11/02 11:08:07;;;;;;;1.63;1.00;;;11.50;84.60;;;;;;4953275;28;20426;-71
2023/11/02 11:10:33;;;;;;;2.27;0.90;;;11.50;85.00;;;;;;4953221;28;20471;-71
2023/11/02 11:13:00;;;;;;;1.50;0.90;;;11.50;84.60;;;;;;4952581;28;20451;-70
2023/11/02 11:15:27;;;;;;;1.93;0.80;;;11.50;84.40;;;;;;4953703;28;20439;-70
2023/11/02 11:17:55;;;;;;;1.13;0.60;;;11.40;84.40;;;;;;4954951;28;20799;-71
2023/11/02 11:20:22;;;;;;;1.80;0.80;;;11.50;84.10;;;;;;4955330;28;20447;-69
2023/11/02 11:22:50;;;;;;;1.20;0.87;;;11.50;84.00;;;;;;4955400;28;20423;-70
2023/11/02 11:25:16;;;;;;;1.60;0.90;;;11.50;84.00;;;;;;4954945;28;20486;-70
2023/11/02 11:27:43;;;;;;;1.07;0.60;;;11.40;83.80;;;;;;4961782;28;20427;-71
2023/11/02 11:30:20;;;;;;;1.67;0.67;;;11.40;83.70;;;;;;4962819;28;20498;-70
2023/11/02 11:32:47;;;;;;;1.73;0.70;;;11.40;84.10;;;;;;4952469;28;20818;-69
2023/11/02 11:35:14;;;;;;;1.80;0.93;;;11.40;84.00;;;;;;4966932;28;20450;-71
2023/11/02 11:37:58;;;;;;;1.23;0.80;;;11.30;84.30;;;;;;4972438;28;20802;-68
2023/11/02 11:40:23;;;;;;;1.20;0.80;;;11.30;84.00;;;;;;4972687;28;20423;-67
2023/11/02 11:42:55;;;;;;;1.13;0.90;;;11.30;84.00;;;;;;4971361;28;20492;-68
2023/11/02 11:45:46;;;;;;;1.43;0.87;;;11.20;84.60;;;;;;4968048;28;20255;-69
2023/11/02 11:48:32;;;;;;;1.40;0.90;;;11.20;84.70;;;;;;4952844;28;20936;-68
2023/11/02 11:50:58;;;;;;;2.10;1.00;;;11.20;84.70;;;;;;4952755;28;20872;-67
2023/11/02 11:53:25;;;;;;;3.33;0.83;;;11.20;84.60;;;;;;4953952;28;20912;-68
2023/11/02 11:55:55;;;;;;;1.10;0.70;;;11.20;84.60;;;;;;4956618;28;20454;-69
2023/11/02 11:58:43;;;;;;;4.20;1.10;;;11.20;83.70;;;;;;4956674;28;20478;-69
2023/11/02 12:01:14;;;;;;;1.00;0.67;;;11.30;83.30;;;;;;4956803;28;20424;-69
2023/11/02 12:03:43;;;;;;;3.53;0.90;;;11.20;83.10;;;;;;4955734;28;20868;-68
2023/11/02 12:06:12;;;;;;;2.40;0.80;;;11.20;83.70;;;;;;4956565;28;20442;-69
2023/11/02 12:08:51;;;;;;;1.67;1.10;;;11.20;83.70;;;;;;4971824;28;20450;-69
2023/11/02 12:11:24;;;;;;;8.97;4.23;;;11.10;84.10;;;;;;4956420;28;20486;-69
2023/11/02 12:13:51;;;;;;;3.80;1.07;;;11.10;84.10;;;;;;4955684;28;20439;-69
2023/11/02 12:16:21;;;;;;;1.77;1.10;;;11.00;84.40;;;;;;4956574;28;20472;-70
2023/11/02 12:18:51;;;;;;;1.53;1.03;;;11.00;84.60;;;;;;4956355;28;20499;-72
2023/11/02 12:21:19;;;;;;;1.43;0.90;;;11.00;84.40;;;;;;4956341;28;20447;-70
2023/11/02 12:23:45;;;;;;;2.17;1.10;;;11.00;84.40;;;;;;4955390;28;20960;-70
2023/11/02 12:26:11;;;;;;;1.20;0.90;;;11.00;84.60;;;;;;4956198;28;20509;-70
2023/11/02 12:28:51;;;;;;;1.50;0.80;;;11.00;84.10;;;;;;4956002;28;20431;-71
2023/11/02 12:31:30;;;;;;;3.53;1.30;;;11.00;83.80;;;;;;4955981;28;20431;-70
2023/11/02 12:33:57;;;;;;;7.73;1.40;;;11.00;84.10;;;;;;4958897;28;20963;-70
2023/11/02 12:36:23;;;;;;;2.83;0.90;;;11.00;84.10;;;;;;4974973;28;20426;-70
2023/11/02 12:38:51;;;;;;;1.27;0.77;;;11.00;83.80;;;;;;4974940;28;20496;-69
2023/11/02 12:41:27;;;;;;;3.20;0.93;;;11.00;84.10;;;;;;4975280;28;20202;-69
2023/11/02 12:44:00;;;;;;;1.00;0.67;;;11.00;83.60;;;;;;4956095;28;20455;-70
2023/11/02 12:46:26;;;;;;;1.70;0.90;;;11.00;83.80;;;;;;4956521;28;20522;-71
2023/11/02 12:48:52;;;;;;;10.90;6.00;;;11.00;83.80;;;;;;4955650;28;20502;-72
2023/11/02 12:51:20;;;;;;;1.00;0.87;;;11.10;83.60;;;;;;4955715;28;20184;-71
2023/11/02 12:53:50;;;;;;;3.13;0.63;;;11.10;83.30;;;;;;4954450;28;20802;-71
2023/11/02 12:56:22;;;;;;;2.27;0.90;;;11.10;83.00;;;;;;4955296;28;20432;-70
2023/11/02 12:58:57;;;;;;;2.53;0.90;;;11.10;82.80;;;;;;4955525;28;20526;-71
2023/11/02 13:01:24;;;;;;;1.47;0.93;;;11.10;82.40;;;;;;4955529;28;20450;-71